Time;durP1;ratioP1;P1;durP2;ratioP2;P2;SDS_P1;SDS_P2;PMS_P1;PMS_P2;Temp;Humidity;BMP_temperature;BMP_pressure;BME280_temperature;BME280_humidity;BME280_pressure;Samples;Min_cycle;Max_cycle;Signal;HPM_P1;HPM_P2
2022/06/04 00:00:34;;;;;;;2.50;2.17;;;;;;;15.19;59.13;101748.81;5051136;28;20033;-71
2022/06/04 00:02:59;;;;;;;2.72;2.22;;;;;;;15.17;59.27;101750.91;5051551;28;20052;-71
2022/06/04 00:05:27;;;;;;;3.08;1.60;;;;;;;15.15;58.75;101744.09;5033195;28;20476;-72
2022/06/04 00:07:54;;;;;;;2.25;2.05;;;;;;;15.10;59.16;101744.69;5051221;28;20037;-72
2022/06/04 00:15:52;;;;;;;3.42;2.20;;;;;;;14.96;59.30;101741.16;5051478;28;20115;-71
2022/06/04 00:18:20;;;;;;;3.40;2.50;;;;;;;14.95;59.30;101739.50;5050853;28;20115;-71
2022/06/04 00:20:46;;;;;;;3.00;2.00;;;;;;;14.88;60.06;101734.13;5051079;28;20147;-72
2022/06/04 00:23:13;;;;;;;3.67;2.03;;;;;;;14.85;59.37;101720.25;5051082;28;20110;-71
2022/06/04 00:25:41;;;;;;;8.45;2.50;;;;;;;14.80;59.38;101728.94;5050915;28;20484;-70
2022/06/04 00:28:09;;;;;;;2.60;2.08;;;;;;;14.79;59.88;101727.28;5051011;28;20384;-71
2022/06/04 00:30:35;;;;;;;4.45;2.15;;;;;;;14.76;60.06;101735.75;5053691;28;20041;-71
2022/06/04 00:33:00;;;;;;;2.53;2.17;;;;;;;14.76;59.39;101740.28;5050394;28;20051;-74
2022/06/04 00:35:26;;;;;;;3.80;1.98;;;;;;;14.76;59.90;101730.38;5050874;28;20033;-73
2022/06/04 00:37:52;;;;;;;4.75;2.60;;;;;;;14.71;59.54;101722.09;5050816;28;20039;-72
2022/06/04 00:40:32;;;;;;;3.22;2.30;;;;;;;14.64;59.99;101731.97;5048968;28;20036;-72
2022/06/04 00:42:58;;;;;;;3.15;2.17;;;;;;;14.59;59.82;101731.75;5050646;28;20043;-72
2022/06/04 00:46:02;;;;;;;4.32;2.30;;;;;;;14.58;60.06;101744.34;5051112;28;20036;-73
2022/06/04 00:48:28;;;;;;;3.40;2.30;;;;;;;14.56;60.04;101740.22;5019462;28;20041;-72
2022/06/04 00:50:53;;;;;;;3.47;2.08;;;;;;;14.49;59.94;101732.13;5050378;28;20028;-71
2022/06/04 00:53:19;;;;;;;6.45;2.58;;;;;;;14.52;60.50;101726.34;5050442;28;20059;-72
2022/06/04 00:55:58;;;;;;;5.85;2.63;;;;;;;14.43;60.28;101722.97;5065093;28;20056;-71
2022/06/04 00:58:57;;;;;;;3.80;2.85;;;;;;;14.38;60.33;101736.22;5068674;28;20024;-72
2022/06/04 01:01:27;;;;;;;3.17;2.33;;;;;;;14.33;61.12;101740.50;5069346;28;20040;-73
2022/06/04 01:04:47;;;;;;;3.42;2.28;;;;;;;14.32;60.60;101745.03;5068693;28;20526;-71
2022/06/04 01:07:06;;;;;;;5.30;2.58;;;;;;;14.26;60.50;101753.91;5068854;28;20075;-71
2022/06/04 01:09:51;;;;;;;3.35;2.17;;;;;;;14.26;60.38;101761.94;5069116;28;20021;-73
2022/06/04 01:12:54;;;;;;;4.03;2.70;;;;;;;14.20;60.97;101763.56;5069287;28;20028;-72
2022/06/04 01:15:19;;;;;;;4.95;2.50;;;;;;;14.19;60.99;101779.84;5069214;28;20132;-72
2022/06/04 01:18:28;;;;;;;4.07;2.60;;;;;;;14.16;60.83;101793.66;5069096;28;20103;-72
2022/06/04 01:21:34;;;;;;;6.75;3.03;;;;;;;14.10;61.07;101791.78;5069003;28;20495;-73
2022/06/04 01:24:28;;;;;;;3.95;2.50;;;;;;;14.12;60.82;101792.38;5068983;28;20017;-72
2022/06/04 01:27:03;;;;;;;2.47;2.28;;;;;;;14.08;61.46;101802.69;5068956;28;20027;-72
2022/06/04 01:29:35;;;;;;;4.57;3.10;;;;;;;14.05;61.73;101796.91;5050594;28;20024;-72
2022/06/04 01:32:07;;;;;;;3.45;2.22;;;;;;;13.99;62.22;101796.66;5068467;28;20048;-72
2022/06/04 01:34:43;;;;;;;10.60;3.95;;;;;;;13.93;61.94;101793.91;5068391;28;20028;-72
2022/06/04 01:37:22;;;;;;;3.33;2.13;;;;;;;13.93;62.41;101794.75;5068798;28;20031;-72
2022/06/04 01:42:36;;;;;;;3.70;2.58;;;;;;;13.87;62.53;101790.19;5068821;28;20514;-71
2022/06/04 01:45:07;;;;;;;4.45;2.83;;;;;;;13.82;62.85;101785.38;5069164;28;20036;-72
2022/06/04 01:47:35;;;;;;;2.92;2.20;;;;;;;13.81;62.85;101789.09;5068400;28;20417;-72
2022/06/04 01:50:03;;;;;;;5.72;2.67;;;;;;;13.77;63.60;101790.50;5068615;28;20047;-72
2022/06/04 01:52:33;;;;;;;3.80;2.50;;;;;;;13.74;63.06;101798.94;5068872;28;20029;-72
2022/06/04 01:55:11;;;;;;;5.82;3.28;;;;;;;13.71;63.36;101795.84;5063810;28;20536;-72
2022/06/04 01:57:39;;;;;;;4.43;3.15;;;;;;;13.67;63.44;101814.13;5050618;28;20487;-64
2022/06/04 02:00:16;;;;;;;5.63;2.63;;;;;;;13.61;63.90;101808.75;5051954;28;20032;-66
2022/06/04 02:03:08;;;;;;;3.60;2.90;;;;;;;13.62;63.64;101803.16;5049510;28;20242;-66
2022/06/04 02:05:46;;;;;;;5.22;2.55;;;;;;;13.59;63.58;101814.28;5039879;28;20463;-66
2022/06/04 02:08:16;;;;;;;3.67;2.53;;;;;;;13.56;64.41;101806.63;5049464;28;20039;-66
2022/06/04 02:10:49;;;;;;;6.18;3.17;;;;;;;13.55;64.48;101813.03;5049405;28;20086;-66
2022/06/04 02:13:15;;;;;;;5.22;2.90;;;;;;;13.50;64.87;101808.22;5031365;28;20791;-66
2022/06/04 02:15:51;;;;;;;6.07;2.95;;;;;;;13.46;65.26;101804.25;5050594;28;20114;-66
2022/06/04 02:18:17;;;;;;;4.93;2.88;;;;;;;13.42;65.50;101794.97;5053507;28;20044;-66
2022/06/04 02:20:42;;;;;;;5.03;2.80;;;;;;;13.42;65.93;101794.97;5053299;28;20028;-66
2022/06/04 02:23:08;;;;;;;4.90;2.80;;;;;;;13.39;65.36;101800.72;5053224;28;20033;-66
2022/06/04 02:25:34;;;;;;;5.35;2.90;;;;;;;13.35;65.13;101799.44;5053235;28;20384;-66
2022/06/04 02:28:00;;;;;;;4.18;2.72;;;;;;;13.36;65.23;101798.41;5053240;28;20175;-66
2022/06/04 02:31:11;;;;;;;3.88;2.88;;;;;;;13.34;65.01;101809.31;5053167;28;20041;-66
2022/06/04 02:34:06;;;;;;;6.90;3.87;;;;;;;13.30;65.66;101805.34;5011434;28;20122;-66
2022/06/04 02:36:36;;;;;;;5.25;3.45;;;;;;;13.28;66.68;101806.56;5034799;28;20519;-66
2022/06/04 02:39:12;;;;;;;7.38;3.03;;;;;;;13.25;66.51;101814.97;5052342;28;20051;-66
2022/06/04 02:41:47;;;;;;;5.97;3.55;;;;;;;13.23;67.08;101801.78;5052413;28;20554;-66
2022/06/04 02:44:41;;;;;;;4.53;3.08;;;;;;;13.22;66.33;101796.59;5035047;28;20119;-66
2022/06/04 02:47:22;;;;;;;4.57;3.10;;;;;;;13.16;67.46;101796.34;5049507;28;20059;-65
2022/06/04 02:49:50;;;;;;;5.63;3.78;;;;;;;13.09;67.90;101781.22;5052638;28;20029;-66
2022/06/04 02:52:17;;;;;;;6.07;3.72;;;;;;;13.11;67.97;101796.06;5052583;28;20056;-66
2022/06/04 02:55:02;;;;;;;10.40;4.78;;;;;;;13.09;68.13;101779.34;5052257;28;20052;-66
2022/06/04 02:57:31;;;;;;;8.90;3.90;;;;;;;13.04;68.19;101765.69;5052481;28;20041;-66
2022/06/04 02:59:59;;;;;;;8.18;3.33;;;;;;;13.05;68.48;101763.88;5052526;28;20071;-66
2022/06/04 03:02:30;;;;;;;8.90;4.50;;;;;;;12.98;69.24;101758.44;5052358;28;20496;-66
2022/06/04 03:04:56;;;;;;;7.82;4.07;;;;;;;12.97;69.10;101755.94;5052527;28;20025;-73
2022/06/04 03:07:23;;;;;;;7.85;3.40;;;;;;;12.93;69.73;101761.69;5052510;28;20381;-74
2022/06/04 03:09:54;;;;;;;6.75;3.75;;;;;;;12.93;69.54;101768.88;5053772;28;20021;-73
2022/06/04 03:12:20;;;;;;;13.20;3.97;;;;;;;12.92;69.19;101759.22;5045575;28;20400;-73
2022/06/04 03:14:46;;;;;;;4.78;3.58;;;;;;;12.88;70.24;101757.91;5052124;28;20294;-73
2022/06/04 03:17:12;;;;;;;8.77;4.93;;;;;;;12.80;70.66;101741.97;5066202;28;20162;-73
2022/06/04 03:19:38;;;;;;;5.07;3.67;;;;;;;12.80;70.34;101752.69;5061803;28;20035;-72
2022/06/04 03:22:04;;;;;;;8.32;3.90;;;;;;;12.74;70.54;101740.06;5066115;28;20497;-73
2022/06/04 03:24:29;;;;;;;6.63;4.32;;;;;;;12.78;70.72;101752.03;5057831;28;20090;-73
2022/06/04 03:26:55;;;;;;;7.75;4.95;;;;;;;12.76;70.75;101757.59;5051671;28;20036;-73
2022/06/04 03:29:21;;;;;;;7.63;4.25;;;;;;;12.73;71.05;101760.63;5057883;28;20028;-74
2022/06/04 03:31:47;;;;;;;8.68;4.53;;;;;;;12.69;71.58;101752.16;5071223;28;20020;-74
2022/06/04 03:34:13;;;;;;;11.93;5.07;;;;;;;12.70;71.33;101759.16;5070820;28;20036;-73
2022/06/04 03:36:39;;;;;;;7.10;4.45;;;;;;;12.68;71.76;101757.69;5070505;28;20139;-73
2022/06/04 03:39:08;;;;;;;8.77;4.05;;;;;;;12.70;71.85;101769.03;5070466;28;20115;-74
2022/06/04 03:41:34;;;;;;;8.20;4.78;;;;;;;12.68;71.71;101766.56;5070940;28;20391;-74
2022/06/04 03:44:00;;;;;;;7.38;3.88;;;;;;;12.69;72.25;101768.22;5063736;28;20541;-73
2022/06/04 03:46:26;;;;;;;9.27;4.10;;;;;;;12.68;72.49;101766.56;5036015;28;20033;-74
2022/06/04 03:48:53;;;;;;;8.88;4.50;;;;;;;12.68;72.03;101771.06;5070717;28;20514;-72
2022/06/04 03:51:18;;;;;;;10.35;4.43;;;;;;;12.63;72.84;101763.63;5070827;28;20043;-73
2022/06/04 03:53:44;;;;;;;7.32;4.07;;;;;;;12.68;72.19;101773.75;5070721;28;20024;-73
2022/06/04 03:56:09;;;;;;;9.00;4.18;;;;;;;12.68;72.58;101763.88;5070590;28;20044;-73
2022/06/04 03:58:35;;;;;;;10.60;5.03;;;;;;;12.67;72.72;101764.88;5070867;28;20549;-73
2022/06/04 04:01:00;;;;;;;10.18;4.43;;;;;;;12.60;73.00;101757.78;5042822;28;20029;-73
2022/06/04 04:03:26;;;;;;;8.35;4.53;;;;;;;12.64;73.26;101762.59;5053504;28;20033;-73
2022/06/04 04:05:55;;;;;;;9.52;5.40;;;;;;;12.64;72.59;101767.94;5070562;28;20024;-66
2022/06/04 04:08:24;;;;;;;11.93;5.30;;;;;;;12.62;73.22;101769.97;5070544;28;20039;-66
2022/06/04 04:10:49;;;;;;;8.10;4.00;;;;;;;12.65;73.55;101774.13;5070496;28;20055;-66
2022/06/04 04:13:16;;;;;;;9.95;4.88;;;;;;;12.67;73.31;101780.13;5070220;28;20032;-66
2022/06/04 04:15:42;;;;;;;12.90;4.22;;;;;;;12.66;73.56;101784.66;5070249;28;20044;-66
2022/06/04 04:18:08;;;;;;;9.93;4.05;;;;;;;12.68;73.37;101801.38;5070248;28;20384;-66
2022/06/04 04:20:37;;;;;;;6.63;4.28;;;;;;;12.67;73.65;101790.84;5070216;28;20032;-66
2022/06/04 04:23:05;;;;;;;10.77;4.45;;;;;;;12.68;73.83;101797.84;5070126;28;20029;-66
2022/06/04 04:25:32;;;;;;;9.32;4.95;;;;;;;12.67;73.93;101804.22;5069953;28;20028;-66
2022/06/04 04:27:59;;;;;;;8.07;4.30;;;;;;;12.62;74.32;101796.75;5069940;28;20032;-66
2022/06/04 04:30:27;;;;;;;12.65;5.80;;;;;;;12.61;74.58;101805.78;5070457;28;20498;-74
2022/06/04 04:32:53;;;;;;;8.68;4.72;;;;;;;12.61;74.40;101787.06;5070303;28;20032;-73
2022/06/04 04:35:25;;;;;;;15.88;5.82;;;;;;;12.59;74.55;101790.94;5069627;28;20032;-74
2022/06/04 04:37:52;;;;;;;8.55;5.35;;;;;;;12.58;75.44;101795.47;5065595;28;20125;-73
2022/06/04 04:40:20;;;;;;;9.52;5.20;;;;;;;12.53;75.25;101789.03;5068222;28;20031;-73
2022/06/04 04:42:48;;;;;;;8.43;4.57;;;;;;;12.49;75.36;101792.03;5063224;28;20029;-72
2022/06/04 04:45:15;;;;;;;9.23;4.72;;;;;;;12.54;75.71;101799.53;5049892;28;20499;-73
2022/06/04 04:47:42;;;;;;;11.77;5.72;;;;;;;12.57;75.86;101803.66;5069656;28;20047;-73
2022/06/04 04:50:16;;;;;;;8.95;4.75;;;;;;;12.59;75.60;101809.69;5069830;28;20060;-73
2022/06/04 04:52:41;;;;;;;9.93;5.25;;;;;;;12.55;75.32;101803.88;5069736;28;20013;-73
2022/06/04 04:55:07;;;;;;;11.35;4.60;;;;;;;12.55;75.78;101808.38;5069214;28;20063;-73
2022/06/04 04:57:33;;;;;;;8.57;4.90;;;;;;;12.57;75.97;101806.34;5069527;28;20127;-73
2022/06/04 04:59:58;;;;;;;9.43;5.15;;;;;;;12.60;76.00;101811.31;5059163;28;20033;-73
2022/06/04 05:02:23;;;;;;;11.23;4.70;;;;;;;12.63;75.87;101822.50;5050257;28;20167;-73
2022/06/04 05:04:49;;;;;;;12.27;5.38;;;;;;;12.66;75.70;101837.38;5050313;28;20110;-73
2022/06/04 05:07:14;;;;;;;13.73;4.93;;;;;;;12.66;76.22;101835.50;5050174;28;20059;-73
2022/06/04 05:09:40;;;;;;;9.93;4.85;;;;;;;12.67;76.09;101833.66;5050284;28;20032;-73
2022/06/04 05:12:08;;;;;;;9.82;4.50;;;;;;;12.70;75.57;101839.44;5050074;28;20057;-73
2022/06/04 05:14:35;;;;;;;10.00;4.82;;;;;;;12.68;76.20;101852.22;5050015;28;20029;-72
2022/06/04 05:17:00;;;;;;;11.07;5.07;;;;;;;12.67;76.08;101849.72;5049953;28;20800;-72
2022/06/04 05:19:26;;;;;;;10.18;4.88;;;;;;;12.63;76.54;101832.38;5049951;28;20033;-73
2022/06/04 05:21:52;;;;;;;14.00;6.30;;;;;;;12.64;76.80;101831.34;5049954;28;20033;-73
2022/06/04 05:24:21;;;;;;;10.70;5.40;;;;;;;12.67;76.68;101830.97;5049529;28;20036;-72
2022/06/04 05:26:47;;;;;;;13.90;6.28;;;;;;;12.66;76.52;101827.47;5049877;28;20059;-74
2022/06/04 05:29:13;;;;;;;10.80;5.32;;;;;;;12.67;76.92;101826.44;5049695;28;20032;-73
2022/06/04 05:31:39;;;;;;;16.73;6.97;;;;;;;12.65;76.93;101824.97;5059084;28;20490;-73
2022/06/04 05:34:05;;;;;;;13.43;5.68;;;;;;;12.71;76.47;101833.09;5049839;28;20163;-73
2022/06/04 05:36:30;;;;;;;8.25;4.65;;;;;;;12.66;76.86;101832.84;5049479;28;20124;-73
2022/06/04 05:38:56;;;;;;;10.75;5.82;;;;;;;12.76;76.95;101839.72;5049669;28;20068;-73
2022/06/04 05:41:21;;;;;;;10.43;5.65;;;;;;;12.82;76.39;101844.34;5049219;28;20029;-73
2022/06/04 05:43:47;;;;;;;11.60;5.45;;;;;;;12.85;76.52;101852.00;5049342;28;20046;-72
2022/06/04 05:46:15;;;;;;;11.77;6.13;;;;;;;12.85;76.49;101852.84;5049798;28;20595;-73
2022/06/04 05:48:44;;;;;;;12.40;5.65;;;;;;;12.87;77.05;101853.47;5049739;28;20028;-73
2022/06/04 05:51:12;;;;;;;12.52;5.63;;;;;;;12.93;75.86;101852.72;5049287;28;20020;-65
2022/06/04 05:53:37;;;;;;;12.00;5.40;;;;;;;12.98;76.57;101857.53;5049618;28;20032;-66
2022/06/04 05:56:10;;;;;;;12.90;5.97;;;;;;;12.94;76.10;101856.22;5049450;28;20435;-66
2022/06/04 05:58:35;;;;;;;9.57;5.18;;;;;;;12.98;76.23;101862.06;5049540;28;20021;-65
2022/06/04 06:01:01;;;;;;;14.63;5.80;;;;;;;12.94;76.15;101857.09;5049350;28;20384;-66
2022/06/04 06:03:27;;;;;;;12.57;5.65;;;;;;;12.93;76.55;101860.75;5049494;28;20527;-66
2022/06/04 06:05:52;;;;;;;16.70;6.68;;;;;;;12.96;76.00;101859.56;5049455;28;20047;-66
2022/06/04 06:08:17;;;;;;;10.63;5.68;;;;;;;12.94;76.60;101866.94;5049575;28;20029;-66
2022/06/04 06:10:44;;;;;;;11.32;6.28;;;;;;;12.96;76.71;101867.59;5049263;28;20033;-66
2022/06/04 06:13:11;;;;;;;14.75;7.07;;;;;;;12.99;76.25;101869.88;5049384;28;20044;-66
2022/06/04 06:15:37;;;;;;;15.30;8.13;;;;;;;13.01;76.94;101865.19;5049024;28;20041;-65
2022/06/04 06:18:03;;;;;;;16.02;6.15;;;;;;;13.05;76.06;101868.31;5063368;28;20082;-66
2022/06/04 06:20:29;;;;;;;13.38;5.55;;;;;;;13.06;76.61;101876.16;5068537;28;20036;-65
2022/06/04 06:22:55;;;;;;;15.75;7.07;;;;;;;13.10;76.28;101872.09;5068453;28;20028;-66
2022/06/04 06:25:20;;;;;;;15.30;6.93;;;;;;;13.09;76.71;101872.28;5068469;28;20399;-65
2022/06/04 06:27:47;;;;;;;13.43;6.22;;;;;;;13.16;76.56;101876.69;5068410;28;20094;-65
2022/06/04 06:30:13;;;;;;;12.82;6.45;;;;;;;13.21;76.68;101878.81;5068501;28;20035;-65
2022/06/04 06:32:40;;;;;;;14.77;6.15;;;;;;;13.26;76.36;101875.56;5068123;28;20028;-65
2022/06/04 06:35:06;;;;;;;13.35;7.03;;;;;;;13.28;75.33;101878.91;5068409;28;20082;-66
2022/06/04 06:37:32;;;;;;;14.07;6.43;;;;;;;13.28;75.38;101874.41;5049898;28;20045;-66
2022/06/04 06:39:57;;;;;;;21.15;9.15;;;;;;;13.25;75.47;101884.63;5068017;28;20029;-66
2022/06/04 06:42:23;;;;;;;14.27;6.43;;;;;;;13.19;75.61;101882.69;5067950;28;20475;-65
2022/06/04 06:44:48;;;;;;;11.68;6.20;;;;;;;13.16;75.63;101884.72;5067940;28;20055;-65
2022/06/04 06:47:14;;;;;;;14.38;7.30;;;;;;;13.25;76.41;101893.47;5048900;28;20040;-65
2022/06/04 06:49:39;;;;;;;16.80;7.40;;;;;;;13.31;75.77;101883.91;5049048;28;20079;-65
2022/06/04 06:52:06;;;;;;;13.48;6.85;;;;;;;13.34;75.35;101884.34;5049169;28;20048;-65
2022/06/04 06:54:35;;;;;;;13.55;7.25;;;;;;;13.42;75.80;101878.03;5030691;28;20386;-64
2022/06/04 06:57:02;;;;;;;11.82;6.65;;;;;;;13.45;74.74;101884.88;5031169;28;20025;-64
2022/06/04 06:59:28;;;;;;;13.85;7.45;;;;;;;13.49;75.03;101891.50;5048982;28;20047;-65
2022/06/04 07:01:55;;;;;;;16.95;7.43;;;;;;;13.50;74.70;101890.50;5048994;28;20035;-65
2022/06/04 07:04:21;;;;;;;12.02;5.97;;;;;;;13.54;75.56;101899.78;5054038;28;20111;-65
2022/06/04 07:06:53;;;;;;;12.30;5.85;;;;;;;13.59;74.65;101892.84;5052604;28;20118;-65
2022/06/04 07:09:26;;;;;;;13.52;6.82;;;;;;;13.64;74.09;101886.91;5052444;28;20033;-65
2022/06/04 07:11:52;;;;;;;12.70;6.10;;;;;;;13.64;74.72;101884.22;5051808;28;20029;-65
2022/06/04 07:14:19;;;;;;;15.45;6.90;;;;;;;13.62;74.57;101872.03;5051749;28;20162;-65
2022/06/04 07:16:45;;;;;;;10.15;5.93;;;;;;;13.69;74.65;101876.44;5052376;28;20036;-65
2022/06/04 07:19:12;;;;;;;10.55;5.97;;;;;;;13.73;74.26;101882.28;5052331;28;20465;-65
2022/06/04 07:21:37;;;;;;;16.52;7.30;;;;;;;13.78;74.26;101883.34;5052184;28;20091;-65
2022/06/04 07:24:03;;;;;;;14.68;6.93;;;;;;;13.85;74.19;101883.38;5063112;28;20033;-65
2022/06/04 07:26:29;;;;;;;13.57;6.65;;;;;;;13.87;74.14;101885.91;5071458;28;20119;-66
2022/06/04 07:28:54;;;;;;;13.57;6.68;;;;;;;13.94;73.68;101886.78;5071301;28;20028;-66
2022/06/04 07:31:20;;;;;;;11.68;6.47;;;;;;;13.95;73.63;101891.13;5071365;28;20037;-66
2022/06/04 07:33:47;;;;;;;14.88;6.00;;;;;;;13.99;72.95;101895.06;5068138;28;20033;-65
2022/06/04 07:36:21;;;;;;;16.50;6.78;;;;;;;14.05;72.92;101890.78;5051862;28;20028;-65
2022/06/04 07:38:47;;;;;;;14.38;7.65;;;;;;;14.15;72.93;101896.66;5051936;28;20430;-65
2022/06/04 07:41:23;;;;;;;16.30;7.18;;;;;;;14.27;72.89;101897.75;5051347;28;20025;-65
2022/06/04 07:43:49;;;;;;;10.82;6.20;;;;;;;14.33;72.26;101905.03;5051357;28;20620;-65
2022/06/04 07:46:15;;;;;;;11.57;6.15;;;;;;;14.42;72.30;101909.22;5051342;28;20366;-66
2022/06/04 07:48:40;;;;;;;12.60;6.70;;;;;;;14.47;71.68;101905.97;5051765;28;20025;-66
2022/06/04 07:51:06;;;;;;;14.57;6.65;;;;;;;14.56;72.05;101904.78;5051659;28;20385;-66
2022/06/04 07:53:32;;;;;;;12.65;6.35;;;;;;;14.64;70.87;101906.50;5051641;28;20043;-66
2022/06/04 07:55:57;;;;;;;13.73;6.95;;;;;;;14.67;70.36;101912.31;5033228;28;20067;-66
2022/06/04 07:58:23;;;;;;;15.30;7.15;;;;;;;14.69;70.86;101914.78;5051683;28;20049;-65
2022/06/04 08:00:58;;;;;;;12.05;6.15;;;;;;;14.69;70.76;101906.72;5051453;28;20427;-66
2022/06/04 08:03:24;;;;;;;14.77;7.45;;;;;;;14.74;70.99;101901.59;5050741;28;20098;-65
2022/06/04 08:05:51;;;;;;;13.65;7.32;;;;;;;14.80;71.48;101883.84;5054057;28;20025;-66
2022/06/04 08:08:16;;;;;;;14.43;6.72;;;;;;;14.88;69.83;101892.59;5028280;28;20028;-66
2022/06/04 08:10:46;;;;;;;13.43;6.38;;;;;;;14.97;70.71;101897.78;5058226;28;20292;-65
2022/06/04 08:13:30;;;;;;;17.58;6.47;;;;;;;15.02;69.65;101901.53;5058736;28;20035;-67
2022/06/04 08:15:59;;;;;;;13.25;5.82;;;;;;;15.11;68.70;101907.56;5057884;28;20117;-66
2022/06/04 08:18:25;;;;;;;19.70;7.75;;;;;;;15.13;69.42;101909.00;5058175;28;20102;-67
2022/06/04 08:20:52;;;;;;;14.07;5.60;;;;;;;15.20;68.98;101906.38;5057662;28;20472;-67
2022/06/04 08:23:18;;;;;;;13.45;5.93;;;;;;;15.36;69.43;101907.84;5064239;28;20056;-67
2022/06/04 08:25:50;;;;;;;16.88;6.38;;;;;;;15.47;69.53;101899.19;5070260;28;20071;-68
2022/06/04 08:28:16;;;;;;;12.13;6.10;;;;;;;15.57;67.45;101894.25;5070171;28;20448;-67
2022/06/04 08:30:43;;;;;;;16.83;6.93;;;;;;;15.65;68.06;101900.47;5070128;28;20103;-67
2022/06/04 08:33:10;;;;;;;14.20;8.05;;;;;;;15.67;68.13;101906.50;5070076;28;20064;-67
2022/06/04 08:35:35;;;;;;;14.60;6.68;;;;;;;15.69;67.89;101905.28;5070096;28;20455;-67
2022/06/04 08:38:01;;;;;;;16.67;6.80;;;;;;;15.66;67.34;101908.31;5070057;28;20063;-66
2022/06/04 08:40:35;;;;;;;11.70;6.13;;;;;;;15.65;67.25;101898.63;5063578;28;20182;-66
2022/06/04 08:43:21;;;;;;;13.38;5.95;;;;;;;15.66;68.39;101884.13;5050071;28;20033;-65
2022/06/04 08:45:47;;;;;;;11.38;6.10;;;;;;;15.74;67.33;101881.25;5050416;28;20046;-66
2022/06/04 08:48:32;;;;;;;14.23;7.68;;;;;;;15.78;67.41;101887.91;5050140;28;20028;-65
2022/06/04 08:50:57;;;;;;;13.25;6.65;;;;;;;15.76;67.62;101883.75;5050535;28;20036;-64
2022/06/04 08:53:28;;;;;;;16.52;7.35;;;;;;;15.94;67.81;101883.16;5050365;28;20032;-64
2022/06/04 08:59:14;;;;;;;15.15;7.18;;;;;;;16.46;65.59;101889.53;5007336;28;20092;-65
2022/06/04 09:02:01;;;;;;;11.82;6.75;;;;;;;16.71;65.17;101886.13;5007407;28;20421;-65
2022/06/04 09:04:36;;;;;;;16.40;7.72;;;;;;;16.93;63.32;101900.22;5037731;28;20109;-65
2022/06/04 09:07:15;;;;;;;14.40;6.68;;;;;;;17.08;63.95;101909.69;5050243;28;20036;-64
2022/06/04 09:09:59;;;;;;;12.32;6.47;;;;;;;17.09;64.27;101908.63;5050324;28;20083;-66
2022/06/04 09:12:35;;;;;;;12.43;6.47;;;;;;;17.14;62.89;101915.25;5050233;28;20028;-66
2022/06/04 09:15:10;;;;;;;12.40;6.40;;;;;;;17.16;62.42;101927.47;5058231;28;20032;-66
2022/06/04 09:17:41;;;;;;;11.98;5.60;;;;;;;17.18;63.13;101938.03;5069299;28;20024;-66
2022/06/04 09:20:34;;;;;;;11.93;5.47;;;;;;;17.28;62.81;101938.41;5069257;28;20056;-66
2022/06/04 09:23:40;;;;;;;14.93;7.60;;;;;;;17.46;62.93;101930.44;5068911;28;20082;-66
2022/06/04 09:26:13;;;;;;;13.35;7.35;;;;;;;17.54;61.83;101923.94;5057632;28;20036;-66
2022/06/04 09:28:52;;;;;;;15.45;6.53;;;;;;;17.52;61.33;101921.47;5068960;28;20028;-66
2022/06/04 09:31:41;;;;;;;13.90;6.95;;;;;;;17.63;61.90;101919.97;5069011;28;20016;-66
2022/06/04 09:34:13;;;;;;;16.80;7.70;;;;;;;17.62;61.10;101910.22;5068902;28;20052;-66
2022/06/04 09:36:42;;;;;;;15.32;8.18;;;;;;;17.59;60.68;101909.81;5069604;28;20024;-66
2022/06/04 09:39:27;;;;;;;15.02;7.82;;;;;;;17.57;61.30;101912.72;5051084;28;20016;-66
2022/06/04 09:41:54;;;;;;;12.88;7.43;;;;;;;17.52;60.78;101907.16;5031541;28;20432;-66
2022/06/04 09:44:19;;;;;;;14.18;7.45;;;;;;;17.48;60.89;101912.16;5048876;28;20033;-66
2022/06/04 09:46:48;;;;;;;12.40;7.40;;;;;;;17.52;61.06;101907.97;5049618;28;20021;-66
2022/06/04 09:49:37;;;;;;;13.18;6.10;;;;;;;17.62;61.38;101912.91;5049377;28;20036;-67
2022/06/04 09:52:23;;;;;;;12.20;7.30;;;;;;;17.71;62.80;101898.13;5049119;28;20044;-66
2022/06/04 09:55:03;;;;;;;11.77;6.38;;;;;;;17.87;62.06;101895.97;5049089;28;20053;-66
2022/06/04 09:57:35;;;;;;;15.50;8.48;;;;;;;17.90;60.77;101907.13;5049617;28;20040;-66
2022/06/04 10:00:05;;;;;;;11.40;6.70;;;;;;;17.94;61.02;101905.63;5049518;28;20499;-67
2022/06/04 10:02:32;;;;;;;14.57;7.72;;;;;;;18.04;60.62;101909.72;5049450;28;20024;-67
2022/06/04 10:05:06;;;;;;;15.85;8.65;;;;;;;18.15;60.27;101914.41;5049277;28;20431;-67
2022/06/04 10:07:35;;;;;;;16.23;7.78;;;;;;;18.25;59.84;101922.84;5049537;28;20076;-67
2022/06/04 10:10:21;;;;;;;16.65;7.43;;;;;;;18.30;60.47;101919.47;5049468;28;20028;-74
2022/06/04 10:15:36;;;;;;;14.75;7.57;;;;;;;18.45;60.10;101927.25;5068666;28;20043;-75
2022/06/04 10:18:12;;;;;;;16.05;8.35;;;;;;;18.56;59.42;101919.22;5068471;28;20107;-74
2022/06/04 10:20:39;;;;;;;10.45;6.82;;;;;;;18.61;58.65;101926.66;5068699;28;20032;-74
2022/06/04 10:23:13;;;;;;;13.82;7.50;;;;;;;18.70;59.83;101919.06;5059990;28;20032;-74
2022/06/04 10:25:58;;;;;;;13.32;8.07;;;;;;;18.89;60.43;101936.13;5031454;28;20415;-73
2022/06/04 10:28:44;;;;;;;14.55;7.05;;;;;;;18.94;59.28;101925.47;5049202;28;20107;-74
2022/06/04 10:31:36;;;;;;;16.75;8.25;;;;;;;18.99;59.64;101929.19;5031465;28;20037;-74
2022/06/04 10:34:24;;;;;;;13.60;7.20;;;;;;;19.30;59.04;101934.59;5068000;28;20488;-74
2022/06/04 10:36:56;;;;;;;14.68;7.40;;;;;;;19.45;56.86;101924.22;5069663;28;20040;-73
2022/06/04 10:39:21;;;;;;;13.75;7.68;;;;;;;19.53;57.31;101923.88;5064221;28;20059;-73
2022/06/04 10:41:56;;;;;;;14.27;8.70;;;;;;;19.55;56.96;101929.91;5052946;28;20468;-73
2022/06/04 10:44:21;;;;;;;14.65;8.13;;;;;;;19.40;58.73;101913.25;5052583;28;20330;-74
2022/06/04 10:47:07;;;;;;;12.93;8.03;;;;;;;19.39;57.53;101914.31;5052280;28;20056;-73
2022/06/04 10:50:09;;;;;;;14.10;8.45;;;;;;;19.38;58.04;101899.94;5053017;28;20806;-72
2022/06/04 10:52:42;;;;;;;15.27;8.90;;;;;;;19.27;58.18;101911.53;5052375;28;20029;-73
2022/06/04 10:55:31;;;;;;;11.93;7.15;;;;;;;19.39;57.49;101915.13;5052448;28;20075;-72
2022/06/04 10:58:11;;;;;;;16.67;7.47;;;;;;;19.61;56.92;101926.25;5038185;28;20484;-73
2022/06/04 11:00:51;;;;;;;15.23;7.82;;;;;;;19.67;56.02;101927.25;5052546;28;20029;-73
2022/06/04 11:03:44;;;;;;;13.82;7.60;;;;;;;19.93;57.32;101921.41;5052577;28;20029;-73
2022/06/04 11:06:29;;;;;;;17.20;8.10;;;;;;;19.96;56.11;101933.66;5052523;28;20036;-72
2022/06/04 11:09:01;;;;;;;13.55;7.97;;;;;;;19.86;55.60;101930.72;5053422;28;20033;-73
2022/06/04 11:11:34;;;;;;;13.63;8.20;;;;;;;19.82;55.96;101934.94;5071460;28;20033;-72
2022/06/04 11:14:09;;;;;;;15.27;7.63;;;;;;;19.78;56.21;101937.31;5071159;28;20181;-73
2022/06/04 11:16:41;;;;;;;15.07;7.50;;;;;;;19.87;57.20;101933.19;5058309;28;20036;-74
2022/06/04 11:19:11;;;;;;;12.75;7.18;;;;;;;19.96;56.11;101947.19;5051695;28;20029;-73
2022/06/04 11:21:42;;;;;;;18.33;7.95;;;;;;;19.88;56.23;101934.00;5052224;28;20040;-74
2022/06/04 11:24:29;;;;;;;14.43;7.67;;;;;;;19.87;57.26;101935.88;5034218;28;20025;-74
2022/06/04 11:27:12;;;;;;;17.10;8.85;;;;;;;19.93;55.50;101936.84;5052250;28;20029;-74
2022/06/04 11:29:38;;;;;;;15.00;7.38;;;;;;;19.90;55.45;101934.59;5052279;28;20029;-74
2022/06/04 11:32:19;;;;;;;14.05;7.65;;;;;;;19.91;55.18;101938.94;5052091;28;20063;-73
2022/06/04 11:35:12;;;;;;;14.73;7.72;;;;;;;19.89;56.68;101941.09;5052140;28;20025;-74
2022/06/04 11:37:53;;;;;;;14.63;7.90;;;;;;;20.02;55.89;101937.34;5051929;28;20138;-74
2022/06/04 11:40:40;;;;;;;15.88;8.27;;;;;;;20.10;55.50;101920.75;5051864;28;20400;-74
2022/06/04 11:44:01;;;;;;;13.75;8.27;;;;;;;20.20;55.36;101923.72;5051715;28;20042;-73
2022/06/04 11:46:29;;;;;;;16.25;7.60;;;;;;;20.49;55.59;101932.78;4999324;28;20117;-72
2022/06/04 11:49:00;;;;;;;16.67;8.27;;;;;;;20.58;55.42;101927.84;5070391;28;20028;-73
2022/06/04 11:51:31;;;;;;;15.27;7.85;;;;;;;20.76;53.67;101921.47;5070884;28;20353;-73
2022/06/04 11:54:28;;;;;;;15.93;7.93;;;;;;;20.82;53.91;101920.50;5070789;28;20384;-73